Latest Weather Observations for Eildon Fire Tower

IDV60801

Issued at 8:05 pm EST Friday 18 April 2014 (issued every 30 minutes, with the page automatically refreshed every 10 minutes)

About weather observations | Map of weather stations | Latest weather observations for VIC | Other Formats
Station Details ID: 088164 Name: EILDON FIRE TOWER Lat: -37.21 Lon: 145.84 Height: 637.0 m
Data from the previous 72 hours. | See also: Recent months at Eildon Fire Tower
Date/Time
EST
Temp
°C
App
Temp
°C
Dew
Point
Rel
Hum
%
Delta-T
°C
Wind Press
QNH
hPa
Press
MSL
hPa
Rain
since 9 am
mm
Dir
 
Spd
km/h
Gust
km/h
Spd
kts
Gust
kts
18/08:00pm 8.6 3.1 4.0 73 2.1 SW 22 30 12 16 - - 0.4
18/07:30pm 9.0 2.7 4.0 71 2.3 SW 26 41 14 22 - - 0.4
18/07:00pm 9.2 3.3 4.0 70 2.4 SW 24 39 13 21 - - 0.4
18/06:30pm 9.3 4.7 5.5 77 1.8 SW 19 32 10 17 - - 0.4
18/06:00pm 9.4 4.7 5.9 79 1.7 WSW 20 33 11 18 - - 0.4
18/05:30pm 9.9 3.7 6.1 77 1.8 WSW 28 41 15 22 - - 0.4
18/05:00pm 10.7 5.2 5.9 72 2.3 SW 24 43 13 23 - - 0.4
18/04:30pm 10.4 3.4 6.2 75 2.0 WSW 32 48 17 26 - - 0.4
18/04:02pm 11.1 5.3 8.0 81 1.6 SW 28 46 15 25 - - 0.4
18/04:00pm 11.1 5.0 8.3 83 1.4 SW 30 46 16 25 - - 0.4
18/03:30pm 10.0 3.0 8.4 90 0.8 WSW 35 50 19 27 - - 0.4
18/03:00pm 10.4 5.4 9.6 95 0.4 WSW 26 33 14 18 - - 0.4
18/02:30pm 10.3 7.0 9.7 96 0.3 WSW 17 28 9 15 - - 0.4
18/02:00pm 10.2 6.6 9.7 97 0.3 W 19 30 10 16 - - 0.0
18/01:30pm 10.3 5.4 9.8 97 0.3 SW 26 37 14 20 - - 0.0
18/01:11pm 11.0 1.1 9.8 92 0.6 W 52 72 28 39 - - 0.0
18/01:08pm 11.5 0.9 9.8 89 0.9 W 56 69 30 37 - - 0.0
18/01:06pm 12.4 5.9 10.3 87 1.1 W 35 65 19 35 - - 0.0
18/01:00pm 13.1 7.5 10.3 83 1.5 W 30 41 16 22 - - 0.0
18/12:30pm 13.9 7.7 9.5 75 2.3 W 32 48 17 26 - - 0.0
18/12:00pm 14.4 10.4 10.4 77 2.2 W 22 33 12 18 - - 0.0
18/11:30am 13.4 9.8 10.0 80 1.8 W 19 26 10 14 - - 0.0
18/11:00am 13.7 10.8 9.7 77 2.1 W 15 20 8 11 - - 0.0
18/10:30am 14.8 12.2 9.4 70 2.9 W 13 19 7 10 - - 0.0
18/10:00am 15.1 14.5 11.7 80 1.9 NW 6 11 3 6 - - 0.0
18/09:30am 13.5 12.6 10.7 83 1.5 W 6 13 3 7 - - 0.0
18/09:00am 13.2 11.9 9.1 76 2.1 WSW 6 9 3 5 - - 0.0
18/08:30am 12.7 10.7 8.8 77 2.0 NW 9 13 5 7 - - 0.0
18/08:00am 12.5 11.0 8.4 76 2.1 NW 6 9 3 5 - - 0.0
18/07:30am 11.8 9.9 7.7 76 2.1 WNW 7 9 4 5 - - 0.0
18/07:00am 12.0 10.1 7.7 75 2.2 NNW 7 11 4 6 - - 0.0
18/06:30am 11.8 10.0 7.9 77 2.0 WNW 7 9 4 5 - - 0.0
18/06:00am 11.9 10.3 8.0 77 2.0 NW 6 9 3 5 - - 0.0
18/05:30am 11.8 9.7 8.3 79 1.8 NNW 9 13 5 7 - - 0.0
18/05:00am 11.0 8.9 8.4 84 1.3 N 9 13 5 7 - - 0.0
18/04:30am 11.5 9.0 8.2 80 1.7 NNW 11 15 6 8 - - 0.0
18/04:00am 11.3 9.2 8.3 82 1.5 N 9 11 5 6 - - 0.0
18/03:30am 10.7 7.9 8.6 87 1.1 N 13 17 7 9 - - 0.0
18/03:00am 10.9 8.5 8.5 85 1.2 N 11 15 6 8 - - 0.0
18/02:30am 11.4 9.3 8.4 82 1.5 N 9 13 5 7 - - 0.0
18/02:00am 11.2 8.8 8.8 85 1.2 N 11 13 6 7 - - 0.0
18/01:30am 11.7 9.0 9.1 84 1.3 N 13 15 7 8 - - 0.0
18/01:00am 11.8 10.2 8.8 82 1.5 N 7 11 4 6 - - 0.0
18/12:30am 12.4 10.8 8.9 79 1.8 N 7 9 4 5 - - 0.0
18/12:00am 12.1 10.2 8.9 81 1.7 N 9 11 5 6 - - 0.0
 
Date/Time
EST
Temp
°C
App
Temp
°C
Dew
Point
Rel
Hum
%
Delta-T
°C
Wind Press
QNH
hPa
Press
MSL
hPa
Rain
since 9 am
mm
Dir
 
Spd
km/h
Gust
km/h
Spd
kts
Gust
kts
17/11:30pm 12.8 11.2 8.9 77 2.0 N 7 9 4 5 - - 0.0
17/11:00pm 13.0 11.5 9.1 77 2.0 N 7 9 4 5 - - 0.0
17/10:30pm 13.5 11.6 9.2 75 2.3 N 9 11 5 6 - - 0.0
17/10:00pm 13.9 12.2 8.5 70 2.8 N 7 9 4 5 - - 0.0
17/09:30pm 14.0 12.2 8.0 67 3.1 N 7 9 4 5 - - 0.0
17/09:00pm 14.9 12.8 8.2 64 3.5 NW 9 13 5 7 - - 0.0
17/08:30pm 15.1 13.0 8.1 63 3.6 NW 9 15 5 8 - - 0.0
17/08:00pm 15.0 12.8 8.0 63 3.6 WNW 9 13 5 7 - - 0.0
17/07:30pm 15.0 12.8 8.0 63 3.6 NW 9 13 5 7 - - 0.0
17/07:00pm 15.2 13.0 8.0 62 3.7 NW 9 13 5 7 - - 0.0
17/06:30pm 15.3 13.1 7.8 61 3.9 WNW 9 13 5 7 - - 0.0
17/06:00pm 15.6 13.0 7.9 60 4.0 W 11 15 6 8 - - 0.0
17/05:30pm 16.3 14.1 7.8 57 4.4 WNW 9 11 5 6 - - 0.0
17/05:00pm 17.0 14.7 7.6 54 4.9 W 9 13 5 7 - - 0.0
17/04:30pm 18.4 16.5 7.5 49 5.7 W 7 13 4 7 - - 0.0
17/04:00pm 18.3 16.3 7.1 48 5.8 W 7 13 4 7 - - 0.0
17/03:30pm 18.7 16.5 7.8 49 5.8 W 9 15 5 8 - - 0.0
17/03:00pm 18.6 16.2 8.6 52 5.4 W 11 19 6 10 - - 0.0
17/02:30pm 18.1 15.5 7.8 51 5.4 W 11 17 6 9 - - 0.0
17/02:00pm 17.7 15.2 8.0 53 5.1 W 11 19 6 10 - - 0.0
17/01:30pm 17.4 14.8 7.7 53 5.1 W 11 17 6 9 - - 0.0
17/01:00pm 17.3 15.2 8.2 55 4.8 W 9 15 5 8 - - 0.0
17/12:30pm 16.6 14.5 8.3 58 4.4 W 9 15 5 8 - - 0.0
17/12:00pm 16.5 15.0 9.0 61 4.0 W 7 11 4 6 - - 0.0
17/11:30am 17.1 16.8 10.2 64 3.8 NNW 2 6 1 3 - - 0.0
17/11:00am 16.3 16.1 11.9 75 2.5 NNW 4 6 2 3 - - 0.0
17/10:30am 15.1 14.6 10.7 75 2.4 NE 4 7 2 4 - - 0.0
17/10:00am 13.8 13.3 10.8 82 1.6 NE 4 6 2 3 - - 0.0
17/09:30am 13.3 12.7 10.5 83 1.5 NE 4 6 2 3 - - 0.0
17/09:00am 11.8 10.4 9.7 87 1.1 E 7 9 4 5 - - 0.0
17/08:30am 10.9 9.0 9.2 89 0.9 ENE 9 11 5 6 - - 0.0
17/08:00am 10.8 9.1 8.2 84 1.3 E 7 9 4 5 - - 0.0
17/07:30am 11.1 9.5 8.0 81 1.6 ENE 6 7 3 4 - - 0.0
17/07:00am 10.3 9.0 7.5 83 1.4 ENE 4 6 2 3 - - 0.0
17/06:30am 9.9 8.5 7.2 83 1.3 ENE 4 6 2 3 - - 0.0
17/06:00am 9.8 8.6 7.9 88 0.9 ENE 4 4 2 2 - - 0.0
17/05:30am 9.5 7.9 8.1 91 0.7 ENE 6 7 3 4 - - 0.0
17/05:00am 9.7 8.1 8.1 90 0.8 ENE 6 7 3 4 - - 0.0
17/04:30am 10.3 8.7 8.1 86 1.1 ESE 6 9 3 5 - - 0.0
17/04:00am 10.5 8.3 7.7 83 1.4 E 9 9 5 5 - - 0.0
17/03:30am 10.6 8.3 7.5 81 1.5 ESE 9 9 5 5 - - 0.0
17/03:00am 11.6 9.3 7.5 76 2.1 SSE 9 11 5 6 - - 0.0
17/02:30am 11.3 9.7 8.2 81 1.6 SSE 6 9 3 5 - - 0.0
17/02:00am 10.7 9.2 8.5 86 1.1 NE 6 7 3 4 - - 0.0
17/01:30am 11.0 9.4 8.6 85 1.2 NE 7 9 4 5 - - 0.0
17/01:00am 10.6 9.2 9.7 94 0.5 NE 7 9 4 5 - - 0.0
17/12:30am 11.5 10.0 9.1 85 1.2 WSW 7 9 4 5 - - 0.0
17/12:00am 11.8 10.6 9.4 85 1.3 WSW 6 7 3 4 - - 0.0
 
Date/Time
EST
Temp
°C
App
Temp
°C
Dew
Point
Rel
Hum
%
Delta-T
°C
Wind Press
QNH
hPa
Press
MSL
hPa
Rain
since 9 am
mm
Dir
 
Spd
km/h
Gust
km/h
Spd
kts
Gust
kts
16/11:30pm 12.3 11.1 8.2 76 2.1 WSW 4 4 2 2 - - 0.0
16/11:00pm 12.2 10.4 8.1 76 2.1 WSW 7 9 4 5 - - 0.0
16/10:30pm 13.1 12.5 7.5 69 2.8 CALM 0 0 0 0 - - 0.0
16/10:00pm 13.2 12.6 7.6 69 2.8 CALM 0 2 0 1 - - 0.0
16/09:30pm 13.0 10.9 8.1 72 2.5 WSW 9 9 5 5 - - 0.0
16/09:00pm 12.8 10.7 8.1 73 2.4 WSW 9 9 5 5 - - 0.0
16/08:30pm 12.9 10.1 8.6 75 2.2 WSW 13 13 7 7 - - 0.0
16/08:00pm 13.0 10.2 8.7 75 2.2 WSW 13 15 7 8 - - 0.0
16/07:30pm 13.3 10.1 8.6 73 2.4 WSW 15 17 8 9 - - 0.0
16/07:00pm 13.4 10.3 8.9 74 2.3 W 15 19 8 10 - - 0.0
16/06:30pm 13.8 11.1 8.8 72 2.6 W 13 17 7 9 - - 0.0
16/06:00pm 14.2 11.0 8.4 68 3.0 W 15 17 8 9 - - 0.0
16/05:30pm 14.7 12.5 7.7 63 3.6 W 9 11 5 6 - - 0.0
16/05:00pm 15.4 13.2 7.7 60 4.0 W 9 13 5 7 - - 0.0
16/04:30pm 15.9 13.7 7.9 59 4.2 W 9 15 5 8 - - 0.0
16/04:00pm 16.1 14.1 8.6 61 4.0 W 9 15 5 8 - - 0.0
16/03:30pm 16.0 14.8 9.4 65 3.5 WSW 6 7 3 4 - - 0.0
16/03:00pm 15.7 14.9 9.6 67 3.3 S 4 6 2 3 - - 0.0
16/02:30pm 15.8 15.2 9.0 64 3.6 WNW 2 4 1 2 - - 0.0
16/02:00pm 16.7 15.4 9.1 61 4.1 W 6 9 3 5 - - 0.0
16/01:30pm 15.7 14.6 10.0 69 3.1 SSE 6 9 3 5 - - 0.0
16/01:00pm 15.0 14.2 9.6 70 2.9 SSE 4 7 2 4 - - 0.0
16/12:30pm 14.3 13.1 10.3 77 2.2 S 7 11 4 6 - - 0.0
16/12:00pm 14.2 13.1 10.0 76 2.3 W 6 9 3 5 - - 0.0
16/11:30am 15.6 15.0 10.4 71 2.8 S 4 7 2 4 - - 0.0
16/11:00am 15.1 13.6 9.0 67 3.2 NNE 7 11 4 6 - - 0.0
16/10:30am 15.5 14.0 9.2 66 3.3 ENE 7 11 4 6 - - 0.0
16/10:00am 14.4 13.4 10.2 76 2.3 NNE 6 11 3 6 - - 0.0
16/09:30am 12.9 11.7 9.5 80 1.8 NE 6 9 3 5 - - 0.0
16/09:00am 12.2 10.5 9.9 86 1.2 ENE 9 9 5 5 - - 0.0
16/08:30am 11.6 9.2 8.5 81 1.6 ENE 11 15 6 8 - - 0.0
16/08:00am 11.7 10.0 8.2 79 1.8 E 7 11 4 6 - - 0.0
16/07:30am 9.9 8.3 7.8 87 1.0 ENE 6 9 3 5 - - 0.0
16/07:00am 9.7 6.1 6.8 82 1.4 ESE 15 19 8 10 - - 0.0
16/06:30am 9.3 5.7 6.6 83 1.3 E 15 17 8 9 - - 0.0
16/06:00am 9.1 5.8 6.5 84 1.3 SE 13 15 7 8 - - 0.0
16/05:30am 9.3 5.7 6.6 83 1.3 ESE 15 19 8 10 - - 0.0
16/05:00am 9.7 5.8 7.0 83 1.3 E 17 19 9 10 - - 0.0
16/04:30am 9.7 5.8 7.0 83 1.3 E 17 19 9 10 - - 0.0
16/04:00am 10.0 5.5 7.1 82 1.4 E 20 22 11 12 - - 0.0
16/03:30am 10.2 5.9 6.9 80 1.6 E 19 22 10 12 - - 0.0
16/03:00am 10.5 6.2 7.0 79 1.7 E 19 28 10 15 - - 0.0
16/02:30am 10.8 6.3 7.1 78 1.8 E 20 28 11 15 - - 0.0
16/02:00am 11.0 6.5 7.1 77 1.9 ESE 20 30 11 16 - - 0.0
16/01:30am 11.0 6.5 7.1 77 1.9 ESE 20 30 11 16 - - 0.0
16/01:00am 11.2 6.3 7.1 76 2.0 ESE 22 32 12 17 - - 0.0
16/12:30am 11.3 5.7 7.2 76 2.0 ESE 26 41 14 22 - - 0.0
16/12:00am 11.6 6.0 7.3 75 2.1 ESE 26 35 14 19 - - 0.0
 
Date/Time
EST
Temp
°C
App
Temp
°C
Dew
Point
Rel
Hum
%
Delta-T
°C
Wind Press
QNH
hPa
Press
MSL
hPa
Rain
since 9 am
mm
Dir
 
Spd
km/h
Gust
km/h
Spd
kts
Gust
kts
15/11:30pm 11.7 6.1 7.2 74 2.2 ESE 26 37 14 20 - - 0.0
15/11:00pm 11.8 6.2 7.3 74 2.2 ESE 26 37 14 20 - - 0.0
15/10:30pm 11.7 6.9 7.2 74 2.2 ESE 22 37 12 20 - - 0.0
15/10:00pm 11.8 6.2 7.3 74 2.2 ESE 26 43 14 23 - - 0.0
15/09:30pm 12.0 7.2 7.3 73 2.4 ESE 22 30 12 16 - - 0.0
15/09:00pm 12.2 7.0 7.3 72 2.5 ESE 24 37 13 20 - - 0.0
15/08:30pm 12.5 8.1 7.4 71 2.6 ESE 20 33 11 18 - - 0.0

Other Formats:

Comma delimited format used in spreadsheet applications
http://www.bom.gov.au/fwo/IDV60801/IDV60801.94881.axf

JavaScript Object Notation format (JSON) in row-major order
http://www.bom.gov.au/fwo/IDV60801/IDV60801.94881.json